X  Sluiten METAR luchtvaart weer gegevens      LGRX Patras Araxos Agamemnon Airport
Temperatuur
33°C Temperatuur
14°C Dauwpunt
32% Vochtigheid



Wind
32 KM/U
20 MPH
9 M/S
17 KTS



180°
Z
Huidig weer

Wat bewolking Wat bewolking
Luchtdruk 1013.92 (hPa) - 29.94 (inHg)
Zicht 6.2 (mijl) - 10 (km)
Vliegveld
Vliegveld code LGRX

Locatie : Patras Araxos Agamemnon Airport
Afstand: 108 (km)

Metar:
LGRX 011450Z 18017G27KT 9999 FEW030 BKN080 33/14 Q1014 RMK BKN180 BLU

Tijd: 01-10-2022 17:50 EEST